createdAt,value
2022-10-31T00:02:46.303Z,58.97
2022-10-31T00:05:50.140Z,87.82
2022-10-31T00:08:58.503Z,84.53
2022-10-31T00:12:00.431Z,70.22
2022-10-31T00:15:02.481Z,82.12
2022-10-31T00:18:06.157Z,72.13
2022-10-31T00:21:08.151Z,61.63
2022-10-31T00:24:10.212Z,76.20
2022-10-31T00:27:12.264Z,77.07
2022-10-31T00:30:14.223Z,76.12
2022-10-31T00:33:16.235Z,57.63
2022-10-31T00:36:20.144Z,66.70
2022-10-31T00:39:22.145Z,56.03
2022-10-31T00:42:24.367Z,51.95
2022-10-31T00:45:26.264Z,58.67
2022-10-31T00:48:28.616Z,39.67
2022-10-31T00:51:30.606Z,38.47
2022-10-31T00:54:32.685Z,59.80
2022-10-31T00:57:34.644Z,44.47
2022-10-31T01:00:36.747Z,49.67
2022-10-31T01:03:39.880Z,44.43
2022-10-31T01:06:42.141Z,62.75
2022-10-31T01:09:44.176Z,65.75
2022-10-31T01:12:48.336Z,69.95
2022-10-31T01:15:55.866Z,57.08
2022-10-31T01:18:58.064Z,55.70
2022-10-31T01:22:00.144Z,50.78
2022-10-31T01:25:02.201Z,34.85
2022-10-31T01:28:04.463Z,50.65
2022-10-31T01:31:09.482Z,65.22
2022-10-31T01:34:16.565Z,83.63
2022-10-31T01:37:18.557Z,75.60
2022-10-31T01:40:20.583Z,72.95
2022-10-31T01:43:22.533Z,81.03
2022-10-31T01:46:35.845Z,65.45
2022-10-31T01:49:38.154Z,105.37
2022-10-31T01:52:46.836Z,81.70
2022-10-31T01:55:48.879Z,53.35
2022-10-31T01:58:51.374Z,70.50
2022-10-31T02:01:55.091Z,79.00
2022-10-31T02:04:58.338Z,89.97
2022-10-31T02:08:18.170Z,85.97
2022-10-31T02:11:20.710Z,105.60
2022-10-31T02:14:24.851Z,137.37
2022-10-31T02:17:27.194Z,138.80
2022-10-31T02:20:38.488Z,141.77
2022-10-31T02:23:47.952Z,90.53
2022-10-31T02:27:07.597Z,98.25
2022-10-31T02:30:17.117Z,102.43
2022-10-31T02:33:33.616Z,53.28
2022-10-31T02:36:35.586Z,67.70
2022-10-31T02:39:40.137Z,72.68
2022-10-31T02:43:04.986Z,59.63
2022-10-31T02:46:18.931Z,81.25
2022-10-31T02:49:28.594Z,74.25
2022-10-31T02:52:35.903Z,68.07
2022-10-31T02:55:37.805Z,87.78
2022-10-31T02:58:49.427Z,76.43
2022-10-31T03:02:12.510Z,48.25
2022-10-31T03:05:36.639Z,55.03
2022-10-31T03:09:06.711Z,93.13
2022-10-31T03:12:23.523Z,76.68
2022-10-31T03:15:32.055Z,69.22
2022-10-31T03:18:39.906Z,75.30
2022-10-31T03:22:06.906Z,63.58
2022-10-31T03:25:10.014Z,53.73
2022-10-31T03:28:15.448Z,62.35
2022-10-31T03:31:20.321Z,46.75
2022-10-31T03:34:22.404Z,50.97
2022-10-31T03:37:28.756Z,59.05
2022-10-31T03:40:37.977Z,50.80
2022-10-31T03:43:45.981Z,77.95
2022-10-31T03:46:48.006Z,39.90
2022-10-31T03:49:50.462Z,33.03
2022-10-31T03:53:03.834Z,36.15
2022-10-31T03:56:20.405Z,57.43
2022-10-31T03:59:35.638Z,59.35
2022-10-31T04:02:43.692Z,54.22
2022-10-31T04:05:50.396Z,60.90
2022-10-31T04:08:59.471Z,34.78
2022-10-31T04:12:06.481Z,62.47
2022-10-31T04:15:11.628Z,62.65
2022-10-31T04:18:14.317Z,55.97
2022-10-31T04:21:16.420Z,47.78
2022-10-31T04:24:18.379Z,57.10
2022-10-31T04:27:20.422Z,60.63
2022-10-31T04:30:22.606Z,38.40
2022-10-31T04:33:24.594Z,41.08
2022-10-31T04:36:26.530Z,97.07
2022-10-31T04:39:28.550Z,49.40
2022-10-31T04:42:31.656Z,33.80
2022-10-31T04:45:33.642Z,42.17
2022-10-31T04:48:35.695Z,27.58
2022-10-31T04:51:37.710Z,59.72
2022-10-31T04:54:39.690Z,34.60
2022-10-31T04:57:43.330Z,45.30
2022-10-31T05:00:45.379Z,30.73
2022-10-31T05:03:47.425Z,42.45
2022-10-31T05:06:49.802Z,38.47
2022-10-31T05:09:51.793Z,38.60
2022-10-31T05:12:59.167Z,48.47
2022-10-31T05:16:01.516Z,33.42
2022-10-31T05:19:03.488Z,46.67
2022-10-31T05:22:05.454Z,42.92
2022-10-31T05:25:07.759Z,58.47
2022-10-31T05:28:09.922Z,56.17
2022-10-31T05:31:12.119Z,52.20
2022-10-31T05:34:14.138Z,69.75
2022-10-31T05:37:16.148Z,61.88
2022-10-31T05:40:19.665Z,58.42
2022-10-31T05:43:21.603Z,63.57
2022-10-31T05:46:23.759Z,49.05
2022-10-31T05:49:25.804Z,68.03
2022-10-31T05:52:27.772Z,51.08
2022-10-31T05:55:30.514Z,35.25
2022-10-31T05:58:32.666Z,57.93
2022-10-31T06:01:34.725Z,31.08
2022-10-31T06:04:36.937Z,42.72
2022-10-31T06:07:38.959Z,67.55
2022-10-31T06:10:40.985Z,66.28
2022-10-31T06:13:42.957Z,55.53
2022-10-31T06:16:44.991Z,40.97
2022-10-31T06:19:47.012Z,51.10
2022-10-31T06:22:49.175Z,42.08
2022-10-31T06:25:51.970Z,55.70
2022-10-31T06:28:54.233Z,62.37
2022-10-31T06:31:56.191Z,50.12
2022-10-31T06:34:58.182Z,46.47
2022-10-31T06:38:00.596Z,31.30
2022-10-31T06:41:07.146Z,38.08
2022-10-31T06:44:09.248Z,45.30
2022-10-31T06:47:11.213Z,59.65
2022-10-31T06:50:13.167Z,56.88
2022-10-31T06:53:15.737Z,51.60
2022-10-31T06:56:17.722Z,33.17
2022-10-31T06:59:19.736Z,35.87
2022-10-31T07:02:21.839Z,33.95
2022-10-31T07:05:23.923Z,45.88
2022-10-31T07:08:26.425Z,47.03
2022-10-31T07:11:28.333Z,44.28
2022-10-31T07:14:30.365Z,41.60
2022-10-31T07:17:32.418Z,35.72
2022-10-31T07:20:34.930Z,34.80
2022-10-31T07:23:36.900Z,62.15
2022-10-31T07:26:38.851Z,32.33
2022-10-31T07:29:40.872Z,32.23
2022-10-31T07:32:44.908Z,32.10
2022-10-31T07:35:47.013Z,34.28
2022-10-31T07:38:48.969Z,25.83
2022-10-31T07:41:51.161Z,42.62
2022-10-31T07:44:55.338Z,30.50
2022-10-31T07:48:00.016Z,40.15
2022-10-31T07:51:02.229Z,34.85
2022-10-31T07:54:04.718Z,35.42
2022-10-31T07:57:06.661Z,31.05
2022-10-31T08:00:10.989Z,21.60
2022-10-31T08:03:15.752Z,21.42
2022-10-31T08:06:17.709Z,34.40
2022-10-31T08:09:19.673Z,29.23
2022-10-31T08:12:22.029Z,30.42
2022-10-31T08:15:24.175Z,30.03
2022-10-31T08:18:26.167Z,35.40
2022-10-31T08:21:28.214Z,28.42
2022-10-31T08:24:30.279Z,55.67
2022-10-31T08:27:32.382Z,28.02
2022-10-31T08:30:36.596Z,26.30
2022-10-31T08:33:38.669Z,29.05
2022-10-31T08:36:41.240Z,28.52
2022-10-31T08:39:43.291Z,27.23
2022-10-31T08:42:46.164Z,39.33
2022-10-31T08:45:51.015Z,31.57
2022-10-31T08:48:52.961Z,29.77
2022-10-31T08:51:54.965Z,36.63
2022-10-31T08:54:56.894Z,30.20
2022-10-31T08:58:00.133Z,28.20
2022-10-31T09:01:02.943Z,30.97
2022-10-31T09:04:05.009Z,28.27
2022-10-31T09:07:22.245Z,28.10
2022-10-31T09:10:25.483Z,31.92
2022-10-31T09:13:28.371Z,27.65
2022-10-31T09:16:30.443Z,23.67
2022-10-31T09:19:32.508Z,23.77
2022-10-31T09:22:34.471Z,27.98
2022-10-31T09:25:37.064Z,23.90
2022-10-31T09:28:39.317Z,26.05
2022-10-31T09:31:44.876Z,28.93
2022-10-31T09:34:47.289Z,26.10
2022-10-31T09:37:56.044Z,27.58
2022-10-31T09:41:30.297Z,29.15
2022-10-31T09:44:50.329Z,25.92
2022-10-31T09:48:21.742Z,29.43
2022-10-31T09:51:26.177Z,25.17
2022-10-31T09:54:45.534Z,24.02
2022-10-31T09:57:49.060Z,28.87
2022-10-31T10:00:52.020Z,26.87
2022-10-31T10:03:58.967Z,24.10
2022-10-31T10:07:08.310Z,26.92
2022-10-31T10:10:16.083Z,24.20
2022-10-31T10:13:33.274Z,26.52
2022-10-31T10:17:02.195Z,26.85
2022-10-31T10:20:13.592Z,26.17
2022-10-31T10:23:34.700Z,25.80
2022-10-31T10:26:39.356Z,25.77
2022-10-31T10:30:12.231Z,24.52
2022-10-31T10:33:25.382Z,28.48
2022-10-31T10:36:27.270Z,27.57
2022-10-31T10:39:44.624Z,28.12
2022-10-31T10:43:15.584Z,27.80
2022-10-31T10:46:41.818Z,30.20
2022-10-31T10:49:53.508Z,28.80
2022-10-31T10:53:22.442Z,32.60
2022-10-31T10:56:42.277Z,32.17
2022-10-31T10:59:44.306Z,30.30
2022-10-31T11:02:48.862Z,35.00
2022-10-31T11:05:52.556Z,34.00
2022-10-31T11:08:54.808Z,33.83
2022-10-31T11:11:58.945Z,33.70
2022-10-31T11:15:08.414Z,33.30
2022-10-31T11:18:22.864Z,30.73
2022-10-31T11:21:30.515Z,33.53
2022-10-31T11:24:39.860Z,34.30
2022-10-31T11:27:41.850Z,33.25
2022-10-31T11:30:50.217Z,34.13
2022-10-31T11:33:59.929Z,31.83
2022-10-31T11:37:14.780Z,26.40
2022-10-31T11:40:22.228Z,31.40
2022-10-31T11:43:24.969Z,31.23
2022-10-31T11:46:34.597Z,32.53
2022-10-31T11:49:42.323Z,32.90
2022-10-31T11:52:44.376Z,33.40
2022-10-31T11:56:05.303Z,31.97
2022-10-31T11:59:18.156Z,35.92
2022-10-31T12:02:20.852Z,31.70
2022-10-31T12:05:30.297Z,31.45
2022-10-31T12:08:35.107Z,33.90
2022-10-31T12:12:21.814Z,32.13
2022-10-31T12:15:31.845Z,29.87
2022-10-31T12:19:00.730Z,30.98
2022-10-31T12:22:05.532Z,30.45
2022-10-31T12:25:16.832Z,29.70
2022-10-31T12:28:55.110Z,30.43
2022-10-31T12:32:09.526Z,27.73
2022-10-31T12:35:41.208Z,36.45
2022-10-31T12:38:51.747Z,32.35
2022-10-31T12:42:13.952Z,34.90
2022-10-31T12:45:26.647Z,34.97
2022-10-31T12:48:54.044Z,31.77
2022-10-31T12:52:08.964Z,33.97
2022-10-31T12:55:48.417Z,34.30
2022-10-31T12:59:01.284Z,32.70
2022-10-31T13:02:12.185Z,34.40
2022-10-31T13:05:20.671Z,31.00
2022-10-31T13:08:41.836Z,31.90
2022-10-31T13:11:49.237Z,30.62
2022-10-31T13:15:12.989Z,34.75
2022-10-31T13:18:28.153Z,33.30
2022-10-31T13:22:05.611Z,36.80
2022-10-31T13:25:10.341Z,33.67
2022-10-31T13:28:24.340Z,33.53
2022-10-31T13:31:26.872Z,31.25
2022-10-31T13:34:42.341Z,30.17
2022-10-31T13:38:09.006Z,34.05
2022-10-31T13:41:20.220Z,31.90
2022-10-31T13:44:25.492Z,32.35
2022-10-31T13:47:30.323Z,32.92
2022-10-31T13:50:34.346Z,30.83
2022-10-31T13:53:39.157Z,30.08
2022-10-31T13:56:41.381Z,30.85
2022-10-31T13:59:52.836Z,30.60
2022-10-31T14:02:58.500Z,31.98
2022-10-31T14:06:01.021Z,28.93
2022-10-31T14:09:03.653Z,30.27
2022-10-31T14:12:09.649Z,27.17
2022-10-31T14:15:26.991Z,28.20
2022-10-31T14:18:39.030Z,29.48
2022-10-31T14:21:48.849Z,30.97
2022-10-31T14:24:50.900Z,27.52
2022-10-31T14:27:53.674Z,32.80
2022-10-31T14:30:58.426Z,33.10
2022-10-31T14:34:02.829Z,30.40
2022-10-31T14:37:23.486Z,29.97
2022-10-31T14:40:34.012Z,31.50
2022-10-31T14:43:51.632Z,29.23
2022-10-31T14:47:09.410Z,32.08
2022-10-31T14:50:48.440Z,29.77
2022-10-31T14:53:53.672Z,31.37
2022-10-31T14:57:00.939Z,30.70
2022-10-31T15:00:07.554Z,31.92
2022-10-31T15:03:22.008Z,30.55
2022-10-31T15:06:25.632Z,34.45
2022-10-31T15:09:34.327Z,31.33
2022-10-31T15:12:39.555Z,31.33
2022-10-31T15:15:41.918Z,30.12
2022-10-31T15:18:54.459Z,35.33
2022-10-31T15:21:58.431Z,31.70
2022-10-31T15:25:00.460Z,34.37
2022-10-31T15:28:02.976Z,31.98
2022-10-31T15:31:05.426Z,36.78
2022-10-31T15:34:17.747Z,33.55
2022-10-31T15:37:25.477Z,34.15
2022-10-31T15:40:28.168Z,37.07
2022-10-31T15:43:36.580Z,33.42
2022-10-31T15:46:38.713Z,35.53
2022-10-31T15:50:01.020Z,33.30
2022-10-31T15:53:05.971Z,37.33
2022-10-31T15:56:12.421Z,39.90
2022-10-31T15:59:27.993Z,36.17
2022-10-31T16:02:30.107Z,37.72
2022-10-31T16:05:50.277Z,37.22
2022-10-31T16:08:52.475Z,40.10
2022-10-31T16:11:58.142Z,37.37
2022-10-31T16:15:00.151Z,38.03
2022-10-31T16:18:02.233Z,42.38
2022-10-31T16:21:13.597Z,41.05
2022-10-31T16:24:29.116Z,37.10
2022-10-31T16:27:33.714Z,33.70
2022-10-31T16:30:46.999Z,36.90
2022-10-31T16:33:50.278Z,39.05
2022-10-31T16:36:52.371Z,34.83
2022-10-31T16:39:54.386Z,41.08
2022-10-31T16:42:59.170Z,41.40
2022-10-31T16:46:01.568Z,44.83
2022-10-31T16:49:03.924Z,39.38
2022-10-31T16:52:06.299Z,44.35
2022-10-31T16:55:12.570Z,41.30
2022-10-31T16:58:22.800Z,38.97
2022-10-31T17:01:25.035Z,47.38
2022-10-31T17:04:27.441Z,41.90
2022-10-31T17:07:29.992Z,42.90
2022-10-31T17:10:32.596Z,40.22
2022-10-31T17:13:35.020Z,44.50
2022-10-31T17:16:37.604Z,51.25
2022-10-31T17:19:39.633Z,38.33
2022-10-31T17:22:41.901Z,36.63
2022-10-31T17:25:44.669Z,34.08
2022-10-31T17:28:48.287Z,34.77
2022-10-31T17:31:51.101Z,36.28
2022-10-31T17:34:53.873Z,42.00
2022-10-31T17:37:56.525Z,40.47
2022-10-31T17:40:59.804Z,44.80
2022-10-31T17:44:02.715Z,49.43
2022-10-31T17:47:06.364Z,46.50
2022-10-31T17:50:09.783Z,42.80
2022-10-31T17:53:12.697Z,48.67
2022-10-31T17:56:17.310Z,50.97
2022-10-31T17:59:30.224Z,51.87
2022-10-31T18:02:36.218Z,59.03
2022-10-31T18:05:38.998Z,72.05
2022-10-31T18:08:42.521Z,61.20
2022-10-31T18:11:45.729Z,77.10
2022-10-31T18:14:48.969Z,53.23
2022-10-31T18:17:52.126Z,77.80
2022-10-31T18:20:57.896Z,67.62
2022-10-31T18:24:02.420Z,41.22
2022-10-31T18:27:07.427Z,50.83
2022-10-31T18:30:11.070Z,53.83
2022-10-31T18:33:14.643Z,42.08
2022-10-31T18:36:17.250Z,64.10
2022-10-31T18:39:21.451Z,50.72
2022-10-31T18:42:24.447Z,52.62
2022-10-31T18:45:46.606Z,43.60
2022-10-31T18:48:50.091Z,33.90
2022-10-31T18:51:53.389Z,43.72
2022-10-31T18:54:56.039Z,30.08
2022-10-31T18:57:59.099Z,35.92
2022-10-31T19:01:07.895Z,40.00
2022-10-31T19:04:12.462Z,49.08
2022-10-31T19:07:15.114Z,41.53
2022-10-31T19:10:18.166Z,54.05
2022-10-31T19:13:21.720Z,53.85
2022-10-31T19:16:25.364Z,43.60
2022-10-31T19:19:29.521Z,37.05
2022-10-31T19:22:32.439Z,40.90
2022-10-31T19:25:35.247Z,44.17
2022-10-31T19:28:41.157Z,43.50
2022-10-31T19:31:44.346Z,44.00
2022-10-31T19:34:47.014Z,41.05
2022-10-31T19:37:49.596Z,43.58
2022-10-31T19:40:58.112Z,43.28
2022-10-31T19:44:15.994Z,44.25
2022-10-31T19:47:19.291Z,45.73
2022-10-31T19:50:22.303Z,39.63
2022-10-31T19:53:26.068Z,42.22
2022-10-31T19:56:35.268Z,38.65
2022-10-31T19:59:39.641Z,41.40
2022-10-31T20:02:42.860Z,49.03
2022-10-31T20:05:46.563Z,38.38
2022-10-31T20:08:50.355Z,36.55
2022-10-31T20:11:53.323Z,35.47
2022-10-31T20:14:56.461Z,35.33
2022-10-31T20:17:59.400Z,43.77
2022-10-31T20:21:23.374Z,40.25
2022-10-31T20:24:26.539Z,37.97
2022-10-31T20:27:30.199Z,39.03
2022-10-31T20:30:37.082Z,41.53
2022-10-31T20:33:40.859Z,48.00
2022-10-31T20:36:46.170Z,34.63
2022-10-31T20:39:52.568Z,33.65
2022-10-31T20:42:58.409Z,43.00
2022-10-31T20:46:07.007Z,40.65
2022-10-31T20:49:10.232Z,42.10
2022-10-31T20:52:13.265Z,35.05
2022-10-31T20:55:16.481Z,24.92
2022-10-31T20:58:19.076Z,37.80
2022-10-31T21:01:24.444Z,26.08
2022-10-31T21:04:27.040Z,30.97
2022-10-31T21:07:31.076Z,37.38
2022-10-31T21:10:33.986Z,38.75
2022-10-31T21:13:40.592Z,39.10
2022-10-31T21:16:43.375Z,29.75
2022-10-31T21:19:45.392Z,35.03
2022-10-31T21:22:47.367Z,38.38
2022-10-31T21:25:49.859Z,38.72
2022-10-31T21:28:54.684Z,39.33
2022-10-31T21:31:56.672Z,40.03
2022-10-31T21:34:58.692Z,35.50
2022-10-31T21:38:00.993Z,41.28
2022-10-31T21:41:14.500Z,39.55
2022-10-31T21:44:16.577Z,41.08
2022-10-31T21:47:18.685Z,34.90
2022-10-31T21:50:20.751Z,34.17
2022-10-31T21:53:41.265Z,37.38
2022-10-31T21:56:43.744Z,35.17
2022-10-31T21:59:48.570Z,33.30
2022-10-31T22:02:50.587Z,33.95
2022-10-31T22:05:54.751Z,33.50
2022-10-31T22:09:02.950Z,30.70
2022-10-31T22:12:06.849Z,27.67
2022-10-31T22:15:09.099Z,29.87
2022-10-31T22:18:11.121Z,27.15
2022-10-31T22:21:19.447Z,29.90
2022-10-31T22:24:21.480Z,29.27
2022-10-31T22:27:23.432Z,29.10
2022-10-31T22:30:27.593Z,32.05
2022-10-31T22:33:29.604Z,34.28
2022-10-31T22:36:32.144Z,50.77
2022-10-31T22:39:34.138Z,37.63
2022-10-31T22:42:36.199Z,35.20
2022-10-31T22:45:38.194Z,34.08
2022-10-31T22:48:43.303Z,38.53
2022-10-31T22:51:45.904Z,33.73
2022-10-31T22:54:47.962Z,31.17
2022-10-31T22:57:50.136Z,32.78
2022-10-31T23:00:52.224Z,24.50
2022-10-31T23:03:54.530Z,31.83
2022-10-31T23:06:56.695Z,41.40
2022-10-31T23:09:58.720Z,28.98
2022-10-31T23:13:19.683Z,38.72
2022-10-31T23:16:21.591Z,48.65
2022-10-31T23:19:29.108Z,39.80
2022-10-31T23:22:31.070Z,47.83
2022-10-31T23:25:51.366Z,42.97
2022-10-31T23:28:53.673Z,50.85
2022-10-31T23:31:55.827Z,54.38
2022-10-31T23:35:06.631Z,59.53
2022-10-31T23:38:08.602Z,41.73
2022-10-31T23:41:10.633Z,50.53
2022-10-31T23:44:12.661Z,30.62
2022-10-31T23:47:15.838Z,37.40
2022-10-31T23:50:17.964Z,32.42
2022-10-31T23:53:20.135Z,58.87
2022-10-31T23:56:22.114Z,62.15
2022-10-31T23:59:25.230Z,69.20
